Time;durP1;ratioP1;P1;durP2;ratioP2;P2;SDS_P1;SDS_P2;PMS_P1;PMS_P2;Temp;Humidity;BMP_temperature;BMP_pressure;BME280_temperature;BME280_humidity;BME280_pressure;Samples;Min_cycle;Max_cycle;Signal;HPM_P1;HPM_P2
2020/12/24 00:01:59;;;;;;;1.08;0.90;;;8.80;99.90;;;;;;5131111;27;20077;-75
2020/12/24 00:04:26;;;;;;;1.92;0.90;;;8.80;99.90;;;;;;5130881;27;20043;-75
2020/12/24 00:06:52;;;;;;;1.63;0.77;;;8.70;99.90;;;;;;5123712;27;20126;-75
2020/12/24 00:09:18;;;;;;;1.23;0.80;;;8.70;99.90;;;;;;5125896;27;20096;-75
2020/12/24 00:11:45;;;;;;;2.60;0.85;;;8.70;99.90;;;;;;5128077;27;20070;-75
2020/12/24 00:14:11;;;;;;;1.48;0.95;;;8.70;99.90;;;;;;5122105;27;20089;-75
2020/12/24 00:16:37;;;;;;;0.90;0.70;;;8.60;99.90;;;;;;5112676;27;20043;-75
2020/12/24 00:19:04;;;;;;;1.73;0.80;;;8.60;99.90;;;;;;5130046;27;20138;-75
2020/12/24 00:21:36;;;;;;;0.93;0.80;;;8.50;99.90;;;;;;5112959;27;20146;-75
2020/12/24 00:24:03;;;;;;;2.65;1.10;;;8.50;99.90;;;;;;5103507;27;20058;-75
2020/12/24 00:26:31;;;;;;;0.75;0.75;;;8.40;99.90;;;;;;5130279;27;20489;-75
2020/12/24 00:28:57;;;;;;;1.65;0.95;;;8.50;99.90;;;;;;5105726;28;20584;-75
2020/12/24 00:31:25;;;;;;;3.67;0.98;;;8.40;99.90;;;;;;5116209;27;20513;-75
2020/12/24 00:33:52;;;;;;;1.00;0.90;;;8.40;99.90;;;;;;5130428;27;20097;-75
2020/12/24 00:36:18;;;;;;;1.48;0.70;;;8.30;99.90;;;;;;5111233;27;20534;-76
2020/12/24 00:38:44;;;;;;;3.30;1.02;;;8.30;99.90;;;;;;5118944;27;20047;-75
2020/12/24 00:41:10;;;;;;;0.80;0.80;;;8.30;99.90;;;;;;5127212;27;20490;-75
2020/12/24 00:43:37;;;;;;;0.80;0.65;;;8.30;99.90;;;;;;5130390;27;20073;-75
2020/12/24 00:46:04;;;;;;;1.67;0.85;;;8.20;99.90;;;;;;5130646;27;20070;-75
2020/12/24 00:48:36;;;;;;;3.08;1.20;;;8.20;99.90;;;;;;5129883;27;20043;-75
2020/12/24 00:51:02;;;;;;;2.15;0.90;;;8.20;99.90;;;;;;5129993;27;20230;-75
2020/12/24 00:53:29;;;;;;;1.38;1.00;;;8.20;99.90;;;;;;5126963;27;20126;-76
2020/12/24 00:55:55;;;;;;;1.80;0.77;;;8.10;99.90;;;;;;5129440;27;20174;-75
2020/12/24 00:58:21;;;;;;;2.85;1.20;;;8.20;99.90;;;;;;5129065;27;20112;-75
2020/12/24 01:00:48;;;;;;;2.40;1.00;;;8.20;99.90;;;;;;5111371;27;20042;-75
2020/12/24 01:03:14;;;;;;;1.80;0.80;;;8.20;99.90;;;;;;5111475;27;20122;-75
2020/12/24 01:05:41;;;;;;;3.22;1.00;;;8.20;99.90;;;;;;5129564;27;20075;-75
2020/12/24 01:08:07;;;;;;;3.42;1.23;;;8.20;99.90;;;;;;5128849;27;20402;-74
2020/12/24 01:10:33;;;;;;;1.10;1.00;;;8.20;99.90;;;;;;5123493;27;20092;-74
2020/12/24 01:13:00;;;;;;;3.00;0.95;;;8.20;99.90;;;;;;5130140;27;20051;-75
2020/12/24 01:15:27;;;;;;;1.17;1.10;;;8.10;99.90;;;;;;5130247;27;20035;-75
2020/12/24 01:17:53;;;;;;;2.25;0.95;;;8.20;99.90;;;;;;5106818;27;20075;-75
2020/12/24 01:20:19;;;;;;;3.72;1.10;;;8.10;99.90;;;;;;5128659;27;20497;-75
2020/12/24 01:22:46;;;;;;;0.80;0.80;;;8.10;99.90;;;;;;5119261;28;20466;-74
2020/12/24 01:25:12;;;;;;;1.00;0.90;;;8.10;99.90;;;;;;5116286;28;20047;-74
2020/12/24 01:27:40;;;;;;;0.90;0.70;;;8.20;99.90;;;;;;5128102;28;20079;-75
2020/12/24 01:30:07;;;;;;;1.20;0.90;;;8.10;99.90;;;;;;5127362;28;20096;-74
2020/12/24 01:32:33;;;;;;;0.98;0.85;;;8.10;99.90;;;;;;5115237;28;20096;-74
2020/12/24 01:35:00;;;;;;;0.90;0.75;;;8.10;99.90;;;;;;5123690;27;20490;-75
2020/12/24 01:37:27;;;;;;;1.95;0.80;;;8.10;99.90;;;;;;5123566;27;20858;-75
2020/12/24 01:39:53;;;;;;;2.25;1.10;;;8.00;99.90;;;;;;5133122;27;20100;-74
2020/12/24 01:42:20;;;;;;;1.85;0.70;;;7.90;99.90;;;;;;5133916;27;20051;-75
2020/12/24 01:44:47;;;;;;;1.58;0.85;;;7.90;99.90;;;;;;5115184;27;20043;-75
2020/12/24 01:47:15;;;;;;;1.77;0.80;;;7.90;99.90;;;;;;5115544;27;20127;-75
2020/12/24 01:49:41;;;;;;;5.28;1.13;;;7.90;99.90;;;;;;5113992;27;20362;-75
2020/12/24 01:52:31;;;;;;;0.80;0.80;;;8.00;99.90;;;;;;5134371;27;20047;-75
2020/12/24 01:54:58;;;;;;;3.35;1.10;;;7.90;99.90;;;;;;5113593;27;20070;-74
2020/12/24 01:57:25;;;;;;;1.13;0.70;;;7.90;99.90;;;;;;5133420;27;20410;-75
2020/12/24 01:59:54;;;;;;;2.33;0.80;;;7.90;99.90;;;;;;5132916;27;20047;-75
2020/12/24 02:02:21;;;;;;;2.80;0.90;;;7.80;99.90;;;;;;5133366;27;20577;-75
2020/12/24 02:04:47;;;;;;;3.85;1.05;;;7.70;99.90;;;;;;5133269;27;20067;-75
2020/12/24 02:07:18;;;;;;;0.88;0.80;;;7.60;99.90;;;;;;5133850;27;20503;-75
2020/12/24 02:09:46;;;;;;;2.65;0.90;;;7.40;99.90;;;;;;5121117;27;20082;-74
2020/12/24 02:12:13;;;;;;;3.15;1.00;;;7.30;99.90;;;;;;5115300;27;20095;-75
2020/12/24 02:14:40;;;;;;;2.08;1.00;;;7.20;99.90;;;;;;5114601;27;20447;-75
2020/12/24 02:17:06;;;;;;;1.08;0.90;;;7.10;99.90;;;;;;5133727;27;20431;-75
2020/12/24 02:19:40;;;;;;;3.85;1.35;;;7.00;99.90;;;;;;5132514;27;20047;-76
2020/12/24 02:22:07;;;;;;;2.20;0.90;;;6.90;99.90;;;;;;5133858;27;20070;-75
2020/12/24 02:24:36;;;;;;;1.77;0.80;;;6.90;99.90;;;;;;5113894;27;20453;-75
2020/12/24 02:27:05;;;;;;;1.35;0.80;;;6.80;99.90;;;;;;5133234;27;20425;-75
2020/12/24 02:29:31;;;;;;;1.30;1.00;;;6.80;99.90;;;;;;5131790;27;20138;-76
2020/12/24 02:31:58;;;;;;;1.85;1.00;;;6.70;99.90;;;;;;5120541;27;20084;-75
2020/12/24 02:34:25;;;;;;;2.22;0.73;;;6.70;99.90;;;;;;5120790;27;20089;-75
2020/12/24 02:36:51;;;;;;;2.90;0.80;;;6.60;99.90;;;;;;5105425;27;20108;-75
2020/12/24 02:39:17;;;;;;;2.45;0.93;;;6.60;99.90;;;;;;5124457;27;20089;-76
2020/12/24 02:41:44;;;;;;;1.92;0.70;;;6.60;99.90;;;;;;5117853;27;20512;-75
2020/12/24 02:44:10;;;;;;;1.65;0.70;;;6.60;99.90;;;;;;5128888;27;20063;-75
2020/12/24 02:46:40;;;;;;;1.05;0.95;;;6.50;99.90;;;;;;5112823;28;20390;-75
2020/12/24 02:49:07;;;;;;;1.05;0.77;;;6.60;99.90;;;;;;5109581;27;20080;-75
2020/12/24 02:51:34;;;;;;;0.82;0.60;;;6.60;99.90;;;;;;5132956;27;20050;-75
2020/12/24 02:54:00;;;;;;;1.20;0.70;;;6.60;99.90;;;;;;5116917;27;20536;-75
2020/12/24 02:56:27;;;;;;;2.55;0.80;;;6.60;99.90;;;;;;5132483;27;20122;-76
2020/12/24 02:58:53;;;;;;;2.05;0.90;;;6.50;99.90;;;;;;5111649;27;20164;-76
2020/12/24 03:01:19;;;;;;;2.42;1.02;;;6.50;99.90;;;;;;5130836;27;20126;-76
2020/12/24 03:03:46;;;;;;;1.55;1.10;;;6.50;99.90;;;;;;5132043;27;20051;-75
2020/12/24 03:06:12;;;;;;;1.88;0.90;;;6.50;99.90;;;;;;5113615;27;20081;-75
2020/12/24 03:08:38;;;;;;;1.90;1.00;;;6.40;99.90;;;;;;5130114;27;20118;-76
2020/12/24 03:11:05;;;;;;;2.13;0.93;;;6.50;99.90;;;;;;5115067;27;20055;-74
2020/12/24 03:13:31;;;;;;;2.20;0.90;;;6.50;99.90;;;;;;5131490;27;20077;-75
2020/12/24 03:15:57;;;;;;;3.65;0.80;;;6.50;99.90;;;;;;5132425;27;20217;-75
2020/12/24 03:18:23;;;;;;;1.20;0.80;;;6.60;99.90;;;;;;5131292;27;20445;-75
2020/12/24 03:20:50;;;;;;;3.20;0.93;;;6.50;99.90;;;;;;5131581;27;20071;-75
2020/12/24 03:23:16;;;;;;;1.75;0.80;;;6.50;99.90;;;;;;5130932;27;20115;-75
2020/12/24 03:25:42;;;;;;;1.85;0.93;;;6.50;99.90;;;;;;5130963;27;20074;-75
2020/12/24 03:28:09;;;;;;;1.30;0.82;;;6.50;99.90;;;;;;5131621;27;20075;-75
2020/12/24 03:30:35;;;;;;;1.08;1.05;;;6.50;99.90;;;;;;5118098;27;20112;-75
2020/12/24 03:33:01;;;;;;;1.67;0.80;;;6.50;99.90;;;;;;5131772;27;20047;-75
2020/12/24 03:35:28;;;;;;;4.05;1.00;;;6.60;99.90;;;;;;5131409;27;20075;-75
2020/12/24 03:37:54;;;;;;;1.90;0.93;;;6.50;99.90;;;;;;5122753;27;20039;-75
2020/12/24 03:40:21;;;;;;;2.03;1.00;;;6.50;99.90;;;;;;5108519;27;20119;-75
2020/12/24 03:42:47;;;;;;;2.35;0.85;;;6.60;99.90;;;;;;5109467;28;20088;-75
2020/12/24 03:45:13;;;;;;;0.73;0.70;;;6.60;99.90;;;;;;5110532;28;20044;-75
2020/12/24 03:47:41;;;;;;;2.75;1.10;;;6.60;99.90;;;;;;5109946;28;20563;-75
2020/12/24 03:50:07;;;;;;;0.75;0.75;;;6.60;99.90;;;;;;5109101;28;20558;-75
2020/12/24 03:52:34;;;;;;;1.15;0.90;;;6.60;99.90;;;;;;5107055;28;20039;-75
2020/12/24 03:55:00;;;;;;;2.22;1.10;;;6.50;99.90;;;;;;5100623;28;20081;-75
2020/12/24 03:57:27;;;;;;;2.20;1.05;;;6.50;99.90;;;;;;5110408;28;20047;-76
2020/12/24 03:59:54;;;;;;;1.40;1.00;;;6.60;99.90;;;;;;5109119;28;20356;-74
2020/12/24 04:02:20;;;;;;;2.15;1.00;;;6.60;99.90;;;;;;5109976;28;20047;-75
2020/12/24 04:04:47;;;;;;;1.25;1.02;;;6.60;99.90;;;;;;5110398;28;20040;-75
2020/12/24 04:07:13;;;;;;;1.30;0.90;;;6.60;99.90;;;;;;5110639;28;20071;-75
2020/12/24 04:09:39;;;;;;;0.70;0.70;;;6.60;99.90;;;;;;5090000;28;20520;-75
2020/12/24 04:12:05;;;;;;;1.27;0.88;;;6.60;99.90;;;;;;5090754;28;20083;-75
2020/12/24 04:14:32;;;;;;;4.30;0.90;;;6.60;99.90;;;;;;5101350;28;20105;-75
2020/12/24 04:16:59;;;;;;;1.95;1.00;;;6.60;99.90;;;;;;5110221;28;20079;-75
2020/12/24 04:19:25;;;;;;;2.67;1.13;;;6.60;99.90;;;;;;5107800;28;20092;-75
2020/12/24 04:21:51;;;;;;;1.98;1.00;;;6.60;99.90;;;;;;5109897;28;20044;-75
2020/12/24 04:24:17;;;;;;;2.70;0.75;;;6.60;99.90;;;;;;5100260;28;20626;-75
2020/12/24 04:26:44;;;;;;;1.33;0.80;;;6.50;99.90;;;;;;5110395;28;20039;-75
2020/12/24 04:29:10;;;;;;;0.80;0.80;;;6.50;99.90;;;;;;5099419;28;20126;-75
2020/12/24 04:31:43;;;;;;;1.23;0.93;;;6.40;99.90;;;;;;5110841;28;20511;-75
2020/12/24 04:34:10;;;;;;;2.10;0.80;;;6.40;99.90;;;;;;5109963;28;20051;-75
2020/12/24 04:36:37;;;;;;;1.17;0.80;;;6.40;99.90;;;;;;5110823;28;20048;-75
2020/12/24 04:39:04;;;;;;;1.05;0.70;;;6.30;99.90;;;;;;5097750;28;20116;-74
2020/12/24 04:41:33;;;;;;;0.93;0.93;;;6.20;99.90;;;;;;5101452;28;20047;-75
2020/12/24 04:44:01;;;;;;;1.20;0.88;;;6.10;99.90;;;;;;5107372;28;20104;-75
2020/12/24 04:46:28;;;;;;;0.75;0.75;;;6.00;99.90;;;;;;5110039;28;20486;-75
2020/12/24 04:48:58;;;;;;;1.17;0.88;;;5.90;99.90;;;;;;5099554;28;20129;-75
2020/12/24 04:51:25;;;;;;;3.42;0.93;;;5.80;99.90;;;;;;5110001;28;20139;-75
2020/12/24 04:53:52;;;;;;;0.70;0.70;;;5.80;99.90;;;;;;5108549;28;20043;-74
2020/12/24 04:56:19;;;;;;;0.75;0.70;;;5.70;99.90;;;;;;5109435;28;20071;-75
2020/12/24 04:58:45;;;;;;;1.27;0.80;;;5.70;99.90;;;;;;5107465;28;20075;-74
2020/12/24 05:01:17;;;;;;;0.93;0.93;;;5.70;99.90;;;;;;5108976;28;20075;-74
2020/12/24 05:03:44;;;;;;;0.77;0.70;;;5.70;99.90;;;;;;5109911;28;20074;-75
2020/12/24 05:06:15;;;;;;;3.03;1.00;;;5.60;99.90;;;;;;5109346;28;20694;-75
2020/12/24 05:08:56;;;;;;;0.90;0.80;;;5.60;99.90;;;;;;5108217;28;20047;-75
2020/12/24 05:11:27;;;;;;;1.10;1.00;;;5.50;99.90;;;;;;5093127;28;20051;-75
2020/12/24 05:13:55;;;;;;;4.40;1.10;;;5.50;99.90;;;;;;5106603;28;20102;-75
2020/12/24 05:16:22;;;;;;;2.28;1.42;;;5.40;99.90;;;;;;5109760;28;20096;-75
2020/12/24 05:18:49;;;;;;;5.50;1.23;;;5.40;99.90;;;;;;5099710;28;20177;-74
2020/12/24 05:21:33;;;;;;;1.25;1.00;;;5.40;99.90;;;;;;5108020;28;20108;-75
2020/12/24 05:23:59;;;;;;;1.80;1.10;;;5.30;99.90;;;;;;5104704;28;20051;-74
2020/12/24 05:26:29;;;;;;;2.60;0.90;;;5.30;99.90;;;;;;5109046;28;20039;-75
2020/12/24 05:29:10;;;;;;;3.08;1.20;;;5.30;99.90;;;;;;5103348;28;20039;-74
2020/12/24 05:31:36;;;;;;;6.10;1.30;;;5.30;99.90;;;;;;5108632;28;20101;-74
2020/12/24 05:34:03;;;;;;;3.47;1.10;;;5.40;99.90;;;;;;5107250;28;20474;-75
2020/12/24 05:36:29;;;;;;;3.60;1.10;;;5.40;99.90;;;;;;5109690;28;20131;-74
2020/12/24 05:38:56;;;;;;;1.45;1.10;;;5.40;99.90;;;;;;5108641;28;20101;-74
2020/12/24 05:41:35;;;;;;;2.28;0.90;;;5.30;99.90;;;;;;5108865;28;20120;-75
2020/12/24 05:44:06;;;;;;;2.53;1.23;;;5.30;99.90;;;;;;5108645;28;20136;-74
2020/12/24 05:46:48;;;;;;;3.20;1.30;;;5.20;99.90;;;;;;5109682;28;20073;-74
2020/12/24 05:49:19;;;;;;;4.95;1.27;;;5.20;99.90;;;;;;5101110;28;20048;-75
2020/12/24 05:51:59;;;;;;;2.97;1.48;;;5.10;99.90;;;;;;5091559;28;20135;-74
2020/12/24 05:54:27;;;;;;;4.57;1.27;;;5.20;99.90;;;;;;5107077;28;20043;-75
2020/12/24 05:56:55;;;;;;;3.30;1.35;;;5.30;99.90;;;;;;5108002;28;20051;-73
2020/12/24 05:59:24;;;;;;;10.40;1.55;;;5.30;99.90;;;;;;5107982;28;20071;-74
2020/12/24 06:02:08;;;;;;;2.78;1.48;;;5.30;99.90;;;;;;5108759;28;20221;-74
2020/12/24 06:04:46;;;;;;;2.65;1.75;;;5.20;99.90;;;;;;5108718;28;20439;-75
2020/12/24 06:07:14;;;;;;;2.42;1.50;;;5.20;99.90;;;;;;5108743;28;20127;-74
2020/12/24 06:09:43;;;;;;;2.55;1.30;;;5.30;99.90;;;;;;5105170;28;20048;-74
2020/12/24 06:12:23;;;;;;;4.65;2.05;;;5.30;99.90;;;;;;5109375;28;20098;-74
2020/12/24 06:14:50;;;;;;;5.00;1.40;;;5.30;99.90;;;;;;5107059;28;20143;-74
2020/12/24 06:17:19;;;;;;;6.78;1.60;;;5.40;99.90;;;;;;5109025;28;20069;-74
2020/12/24 06:19:46;;;;;;;4.68;2.00;;;5.40;99.90;;;;;;5107888;28;20074;-74
2020/12/24 06:22:14;;;;;;;4.78;1.23;;;5.60;99.90;;;;;;5109464;28;20104;-74
2020/12/24 06:24:43;;;;;;;5.00;1.85;;;5.60;99.90;;;;;;5105383;28;20116;-75
2020/12/24 06:27:34;;;;;;;10.30;2.38;;;5.70;99.90;;;;;;5113025;28;20124;-75
2020/12/24 06:30:24;;;;;;;3.88;1.85;;;5.70;99.90;;;;;;5112064;28;20085;-74
2020/12/24 06:32:58;;;;;;;7.05;2.05;;;5.70;99.90;;;;;;5111209;28;20087;-75
2020/12/24 06:35:42;;;;;;;7.60;1.77;;;5.70;99.90;;;;;;5111862;28;20071;-75
2020/12/24 06:38:11;;;;;;;7.88;1.85;;;5.60;99.90;;;;;;5111039;28;20090;-75
2020/12/24 06:40:40;;;;;;;4.57;1.70;;;5.60;99.90;;;;;;5110391;28;20355;-75
2020/12/24 06:43:08;;;;;;;6.25;1.67;;;5.50;99.90;;;;;;5125160;27;20082;-75
2020/12/24 06:45:35;;;;;;;9.02;1.77;;;5.50;99.90;;;;;;5132186;27;20407;-75
2020/12/24 06:48:24;;;;;;;6.00;1.45;;;5.50;99.90;;;;;;5131168;27;20093;-75
2020/12/24 06:50:58;;;;;;;5.13;1.45;;;5.50;99.90;;;;;;5132776;27;20043;-75
2020/12/24 06:53:28;;;;;;;9.30;2.15;;;5.50;99.90;;;;;;5122847;27;20579;-75
2020/12/24 06:56:13;;;;;;;7.55;1.42;;;5.50;99.90;;;;;;5129350;27;20187;-74
2020/12/24 06:58:40;;;;;;;4.97;1.50;;;5.50;99.90;;;;;;5131699;27;20442;-75
2020/12/24 07:01:14;;;;;;;10.55;2.22;;;5.50;99.90;;;;;;5119912;27;20126;-75
2020/12/24 07:03:40;;;;;;;6.00;1.65;;;5.60;99.90;;;;;;5131557;27;20554;-75
2020/12/24 07:06:07;;;;;;;3.15;1.40;;;5.70;99.90;;;;;;5113114;27;20434;-75
2020/12/24 07:08:34;;;;;;;9.30;1.90;;;5.70;99.90;;;;;;5128260;27;20075;-75
2020/12/24 07:11:02;;;;;;;7.50;1.73;;;5.80;99.90;;;;;;5114112;27;20059;-75
2020/12/24 07:13:35;;;;;;;8.50;1.95;;;5.90;99.90;;;;;;5111065;28;20047;-76
2020/12/24 07:16:06;;;;;;;13.70;2.00;;;5.90;99.90;;;;;;5110964;28;20438;-75
2020/12/24 07:18:35;;;;;;;6.50;2.08;;;5.90;99.90;;;;;;5111664;27;20051;-76
2020/12/24 07:21:03;;;;;;;9.65;3.20;;;6.00;99.90;;;;;;5092643;28;20045;-76
2020/12/24 07:23:33;;;;;;;7.50;2.25;;;5.90;99.90;;;;;;5095172;28;20347;-74
2020/12/24 07:26:01;;;;;;;11.55;3.67;;;6.00;99.90;;;;;;5112712;27;20109;-73
2020/12/24 07:28:32;;;;;;;11.55;2.75;;;6.00;99.90;;;;;;5111332;27;20101;-74
2020/12/24 07:31:00;;;;;;;7.57;2.45;;;6.00;99.90;;;;;;5093560;28;20082;-73
2020/12/24 07:33:27;;;;;;;13.32;2.63;;;6.00;99.90;;;;;;5110851;28;20127;-75
2020/12/24 07:35:54;;;;;;;6.50;2.10;;;5.90;99.90;;;;;;5110256;28;20066;-74
2020/12/24 07:38:21;;;;;;;8.27;2.00;;;5.80;99.90;;;;;;5097343;28;20039;-74
2020/12/24 07:40:48;;;;;;;7.18;1.48;;;5.80;99.90;;;;;;5113928;27;20070;-74
2020/12/24 07:43:16;;;;;;;4.35;1.67;;;5.90;99.90;;;;;;5114374;27;20051;-75
2020/12/24 07:45:43;;;;;;;8.88;2.22;;;6.00;99.90;;;;;;5129719;27;20050;-76
2020/12/24 07:48:14;;;;;;;13.73;2.60;;;6.00;99.90;;;;;;5130225;27;20396;-75
2020/12/24 07:50:42;;;;;;;6.63;1.90;;;6.10;99.90;;;;;;5131347;27;20502;-75
2020/12/24 07:53:20;;;;;;;11.13;1.90;;;6.10;99.90;;;;;;5124576;27;20060;-75
2020/12/24 07:55:47;;;;;;;6.65;1.80;;;6.20;99.90;;;;;;5104761;27;20043;-75
2020/12/24 07:58:16;;;;;;;4.25;1.83;;;6.40;99.90;;;;;;5130616;27;20062;-75
2020/12/24 08:00:52;;;;;;;9.60;1.52;;;6.40;99.90;;;;;;5116658;27;20124;-76
2020/12/24 08:03:19;;;;;;;16.15;4.82;;;6.50;99.90;;;;;;5125909;27;20074;-75
2020/12/24 08:05:48;;;;;;;13.23;3.88;;;6.50;99.90;;;;;;5094436;28;20108;-75
2020/12/24 08:08:23;;;;;;;9.27;1.98;;;6.50;99.90;;;;;;5092423;28;20039;-75
2020/12/24 08:10:50;;;;;;;7.40;2.65;;;6.50;99.90;;;;;;5111256;27;20130;-75
2020/12/24 08:13:16;;;;;;;5.05;1.80;;;6.50;99.90;;;;;;5112952;27;20075;-75
2020/12/24 08:15:45;;;;;;;6.15;1.52;;;6.60;99.90;;;;;;5114498;27;20098;-74
2020/12/24 08:18:13;;;;;;;6.18;1.75;;;6.60;99.90;;;;;;5112511;27;20130;-75
2020/12/24 08:20:39;;;;;;;4.85;1.45;;;6.50;99.90;;;;;;5112576;27;20350;-74
2020/12/24 08:23:47;;;;;;;8.65;1.85;;;6.40;99.90;;;;;;5119686;27;20089;-74
2020/12/24 08:26:17;;;;;;;5.82;1.50;;;6.30;99.90;;;;;;5074735;27;20571;-74
2020/12/24 08:29:05;;;;;;;5.80;1.60;;;6.20;99.90;;;;;;5109667;28;20454;-75
2020/12/24 08:31:37;;;;;;;3.75;1.20;;;6.00;99.90;;;;;;5111394;27;20058;-75
2020/12/24 08:34:08;;;;;;;9.93;1.17;;;6.00;99.90;;;;;;5116452;27;20119;-75
2020/12/24 08:36:46;;;;;;;5.88;1.35;;;5.90;99.90;;;;;;5110846;27;20048;-74
2020/12/24 08:39:17;;;;;;;4.85;1.70;;;5.80;99.90;;;;;;5109468;28;20511;-74
2020/12/24 08:41:55;;;;;;;4.68;1.50;;;5.70;99.90;;;;;;5091326;28;20490;-75
2020/12/24 08:44:22;;;;;;;8.57;1.90;;;5.70;99.90;;;;;;5114396;27;20111;-75
2020/12/24 08:47:09;;;;;;;8.65;1.48;;;5.60;99.90;;;;;;5121411;27;20045;-74
2020/12/24 08:49:45;;;;;;;4.95;1.70;;;5.60;99.90;;;;;;5106270;27;20115;-74
2020/12/24 08:52:20;;;;;;;6.03;1.20;;;5.50;99.90;;;;;;5123538;27;20062;-74
2020/12/24 08:55:08;;;;;;;6.53;1.75;;;5.60;99.90;;;;;;5092290;28;20048;-75
2020/12/24 08:57:38;;;;;;;4.03;1.70;;;5.60;99.90;;;;;;5098240;28;20108;-74
2020/12/24 09:00:07;;;;;;;5.45;1.42;;;5.60;99.90;;;;;;5118946;27;20147;-74
2020/12/24 09:02:36;;;;;;;3.50;1.38;;;5.70;99.90;;;;;;5115023;27;20092;-75
2020/12/24 09:05:06;;;;;;;4.03;1.20;;;5.80;99.90;;;;;;5109067;28;20144;-75
2020/12/24 09:07:41;;;;;;;7.35;2.58;;;5.90;99.90;;;;;;5098516;28;20042;-75
2020/12/24 09:10:29;;;;;;;4.80;1.40;;;5.90;99.90;;;;;;5118452;27;20120;-75
2020/12/24 09:12:58;;;;;;;6.05;1.13;;;5.90;99.90;;;;;;5112158;27;20120;-74
2020/12/24 09:15:28;;;;;;;3.85;1.35;;;6.00;99.90;;;;;;5102021;28;20051;-74
2020/12/24 09:17:56;;;;;;;3.72;1.17;;;6.00;99.90;;;;;;5119866;27;20104;-73
2020/12/24 09:20:22;;;;;;;5.15;1.20;;;6.10;99.90;;;;;;5127231;27;20501;-73
2020/12/24 09:22:56;;;;;;;6.05;1.45;;;6.10;99.90;;;;;;5129600;27;20118;-74
2020/12/24 09:25:37;;;;;;;4.32;1.52;;;6.10;99.90;;;;;;5124784;27;20055;-74
2020/12/24 09:28:24;;;;;;;3.47;1.33;;;6.20;99.90;;;;;;5129602;28;20379;-75
2020/12/24 09:31:01;;;;;;;5.03;1.30;;;6.30;99.90;;;;;;5129357;28;20138;-74
2020/12/24 09:33:28;;;;;;;2.05;1.00;;;6.30;99.90;;;;;;5115469;28;20039;-75
2020/12/24 09:35:54;;;;;;;2.92;1.17;;;6.30;99.90;;;;;;5100772;28;20066;-74
2020/12/24 09:38:21;;;;;;;7.07;1.65;;;6.30;99.90;;;;;;5125135;27;20198;-73
2020/12/24 09:40:48;;;;;;;3.40;1.20;;;6.30;99.90;;;;;;5110764;28;20043;-74
2020/12/24 09:43:15;;;;;;;4.32;1.05;;;6.30;99.90;;;;;;5098570;28;20120;-74
2020/12/24 09:45:41;;;;;;;4.25;1.42;;;6.30;99.90;;;;;;5108340;28;20044;-74
2020/12/24 09:48:08;;;;;;;4.43;1.52;;;6.30;99.90;;;;;;5130153;28;20074;-74
2020/12/24 09:50:34;;;;;;;7.63;2.47;;;6.30;99.90;;;;;;5110916;28;20554;-74
2020/12/24 09:53:02;;;;;;;8.40;2.28;;;6.30;99.90;;;;;;5108372;28;20151;-73
2020/12/24 09:55:29;;;;;;;3.70;1.55;;;6.30;99.90;;;;;;5122629;27;20044;-74
2020/12/24 09:57:58;;;;;;;6.22;1.48;;;6.30;99.90;;;;;;5120393;27;20073;-74
2020/12/24 10:00:27;;;;;;;4.55;1.45;;;6.30;99.90;;;;;;5113487;27;20051;-74
2020/12/24 10:02:54;;;;;;;5.75;1.35;;;6.30;99.90;;;;;;5094742;28;20048;-76
2020/12/24 10:05:24;;;;;;;5.82;1.42;;;6.40;99.90;;;;;;5112482;27;20127;-75
2020/12/24 10:07:52;;;;;;;2.67;1.50;;;6.40;99.90;;;;;;5112566;28;20486;-75
2020/12/24 10:10:21;;;;;;;4.22;1.48;;;6.50;99.90;;;;;;5114221;27;20146;-75
2020/12/24 10:12:51;;;;;;;5.80;1.80;;;6.50;99.90;;;;;;5114199;27;20043;-75
2020/12/24 10:15:19;;;;;;;6.30;1.92;;;6.50;99.90;;;;;;5094337;27;20040;-75
2020/12/24 10:17:47;;;;;;;10.80;1.75;;;6.60;99.90;;;;;;5112175;28;20047;-74
2020/12/24 10:20:17;;;;;;;4.40;1.38;;;6.60;99.90;;;;;;5113541;27;20382;-74
2020/12/24 10:22:46;;;;;;;4.07;1.30;;;6.60;99.90;;;;;;5112523;27;20123;-75
2020/12/24 10:25:16;;;;;;;4.82;1.55;;;6.60;99.90;;;;;;5118440;27;20397;-75
2020/12/24 10:27:42;;;;;;;8.52;1.95;;;6.70;99.90;;;;;;5112516;27;20093;-75
2020/12/24 10:30:08;;;;;;;5.03;1.60;;;6.80;99.90;;;;;;5094608;28;20075;-74
2020/12/24 10:32:36;;;;;;;5.07;1.33;;;6.90;99.90;;;;;;5094537;28;20112;-73
2020/12/24 10:35:02;;;;;;;2.97;1.40;;;7.10;99.90;;;;;;5111868;28;20439;-74
2020/12/24 10:37:31;;;;;;;4.10;1.20;;;7.30;99.90;;;;;;5112539;28;20463;-74
2020/12/24 10:39:57;;;;;;;4.30;1.33;;;7.30;99.90;;;;;;5112161;27;20478;-73
2020/12/24 10:42:24;;;;;;;3.75;1.85;;;7.20;99.90;;;;;;5112241;27;20056;-74
2020/12/24 10:44:50;;;;;;;2.70;1.10;;;7.30;99.90;;;;;;5103873;27;20070;-73
2020/12/24 10:47:17;;;;;;;2.60;1.13;;;7.30;99.90;;;;;;5132222;27;20507;-74
2020/12/24 10:49:45;;;;;;;2.97;1.17;;;7.20;99.90;;;;;;5117688;27;20070;-73
2020/12/24 10:52:14;;;;;;;1.73;0.90;;;7.10;99.90;;;;;;5130320;27;20047;-74
2020/12/24 10:54:40;;;;;;;2.75;1.35;;;7.10;99.90;;;;;;5113078;27;20144;-73
2020/12/24 10:57:07;;;;;;;3.92;1.40;;;7.10;99.90;;;;;;5120590;27;20079;-73
2020/12/24 10:59:33;;;;;;;2.15;1.10;;;7.20;99.90;;;;;;5123569;27;20043;-74
2020/12/24 11:01:59;;;;;;;4.07;1.33;;;7.20;99.90;;;;;;5114304;27;20115;-73
2020/12/24 11:04:26;;;;;;;2.15;1.10;;;7.10;99.90;;;;;;5113490;27;20569;-74
2020/12/24 11:06:53;;;;;;;2.10;1.02;;;7.10;99.90;;;;;;5094051;28;20048;-73
2020/12/24 11:09:19;;;;;;;2.42;1.05;;;7.20;99.90;;;;;;5101954;27;20499;-74
2020/12/24 11:11:46;;;;;;;2.28;0.82;;;7.20;99.90;;;;;;5097393;28;20073;-74
2020/12/24 11:14:12;;;;;;;2.88;1.10;;;7.20;99.90;;;;;;5113306;27;20097;-74
2020/12/24 11:16:38;;;;;;;1.00;0.90;;;7.30;99.90;;;;;;5126273;27;20043;-74
2020/12/24 11:19:05;;;;;;;2.70;1.27;;;7.20;99.90;;;;;;5118356;27;20535;-73
2020/12/24 11:21:36;;;;;;;4.93;1.30;;;7.30;99.90;;;;;;5115925;27;20124;-73
2020/12/24 11:24:05;;;;;;;1.83;1.40;;;7.30;99.90;;;;;;5109980;27;20097;-73
2020/12/24 11:26:37;;;;;;;1.85;1.13;;;7.30;99.90;;;;;;5123309;27;20108;-73
2020/12/24 11:29:05;;;;;;;4.00;1.10;;;7.30;99.90;;;;;;5109460;27;20087;-74
2020/12/24 11:31:34;;;;;;;1.30;1.05;;;7.20;99.90;;;;;;5112518;27;20104;-73
2020/12/24 11:34:01;;;;;;;4.18;1.08;;;7.30;99.90;;;;;;5113121;27;20093;-73
2020/12/24 11:36:28;;;;;;;1.75;1.10;;;7.50;99.90;;;;;;5112535;27;20094;-73
2020/12/24 11:38:55;;;;;;;1.35;0.90;;;7.80;99.90;;;;;;5094260;28;20073;-72
2020/12/24 11:41:26;;;;;;;3.03;1.20;;;7.80;99.90;;;;;;5108835;27;20043;-73
2020/12/24 11:43:54;;;;;;;3.07;1.13;;;7.90;99.90;;;;;;5109154;27;20092;-72
2020/12/24 11:46:23;;;;;;;1.77;0.90;;;8.10;99.90;;;;;;5091228;28;20498;-73
2020/12/24 11:48:50;;;;;;;1.42;0.82;;;7.90;99.90;;;;;;5090377;28;20146;-74
2020/12/24 11:51:17;;;;;;;2.03;1.52;;;7.90;99.90;;;;;;5091099;28;20048;-73
2020/12/24 11:53:44;;;;;;;2.08;0.82;;;7.80;99.90;;;;;;5090817;28;20039;-74
2020/12/24 11:56:16;;;;;;;1.67;1.20;;;7.80;99.90;;;;;;5092611;28;20141;-73
2020/12/24 11:58:43;;;;;;;3.08;1.30;;;7.70;99.90;;;;;;5113223;27;20067;-74
2020/12/24 12:01:17;;;;;;;6.07;1.35;;;7.50;99.90;;;;;;5092145;28;20118;-73
2020/12/24 12:03:47;;;;;;;1.92;1.35;;;7.50;99.90;;;;;;5096890;28;20199;-74
2020/12/24 12:06:14;;;;;;;2.55;1.60;;;7.50;99.90;;;;;;5091478;28;20075;-74
2020/12/24 12:08:45;;;;;;;5.00;2.83;;;8.20;99.90;;;;;;5095042;28;20415;-73
2020/12/24 12:11:11;;;;;;;5.03;2.70;;;9.40;99.90;;;;;;5091195;28;20047;-73
2020/12/24 12:13:38;;;;;;;7.72;3.40;;;9.10;99.90;;;;;;5091456;28;20044;-73
2020/12/24 12:16:07;;;;;;;3.35;1.30;;;8.60;99.90;;;;;;5112836;27;20124;-74
2020/12/24 12:18:34;;;;;;;2.80;1.00;;;8.50;99.90;;;;;;5091552;28;20043;-74
2020/12/24 12:21:02;;;;;;;3.90;1.00;;;8.50;99.90;;;;;;5091607;27;20108;-74
2020/12/24 12:23:28;;;;;;;2.05;1.10;;;8.30;99.90;;;;;;5109612;28;20065;-74
2020/12/24 12:26:07;;;;;;;3.33;1.35;;;7.80;99.90;;;;;;5109110;28;20454;-73
2020/12/24 12:28:33;;;;;;;3.42;1.13;;;7.60;99.90;;;;;;5112536;27;20075;-73
2020/12/24 12:31:00;;;;;;;2.30;1.00;;;7.50;99.90;;;;;;5112400;27;20606;-73
2020/12/24 12:33:26;;;;;;;2.50;1.00;;;7.40;99.90;;;;;;5111860;27;20040;-74
2020/12/24 12:35:53;;;;;;;2.92;1.13;;;7.50;99.90;;;;;;5111703;27;20409;-74
2020/12/24 12:38:19;;;;;;;1.95;1.17;;;7.40;99.90;;;;;;5108820;27;20124;-73
2020/12/24 12:40:45;;;;;;;3.75;1.60;;;7.30;99.90;;;;;;5111521;27;20504;-74
2020/12/24 12:43:12;;;;;;;1.98;1.30;;;7.20;99.90;;;;;;5112065;27;20059;-74
2020/12/24 12:45:39;;;;;;;3.33;1.38;;;7.10;99.90;;;;;;5094151;28;20065;-75
2020/12/24 12:48:05;;;;;;;1.33;1.08;;;7.10;99.90;;;;;;5109236;27;20077;-73
2020/12/24 12:50:32;;;;;;;3.35;1.98;;;7.00;99.90;;;;;;5095173;27;20127;-73
2020/12/24 12:52:58;;;;;;;2.25;1.25;;;7.10;99.90;;;;;;5109294;28;20052;-73
2020/12/24 12:55:25;;;;;;;3.75;2.05;;;7.00;99.90;;;;;;5111274;27;20141;-78
2020/12/24 12:57:52;;;;;;;6.97;2.03;;;7.10;99.90;;;;;;5109169;27;20055;-76
2020/12/24 13:00:19;;;;;;;4.47;2.20;;;7.10;99.90;;;;;;5109375;28;20047;-76
2020/12/24 13:02:49;;;;;;;4.75;1.10;;;7.00;99.90;;;;;;5094482;28;21550;-74
2020/12/24 13:05:15;;;;;;;8.23;4.82;;;7.00;99.90;;;;;;5108843;28;20539;-73
2020/12/24 13:07:41;;;;;;;4.60;2.00;;;6.90;99.90;;;;;;5091501;28;20147;-73